Time;durP1;ratioP1;P1;durP2;ratioP2;P2;SDS_P1;SDS_P2;PMS_P1;PMS_P2;Temp;Humidity;BMP_temperature;BMP_pressure;BME280_temperature;BME280_humidity;BME280_pressure;Samples;Min_cycle;Max_cycle;Signal;HPM_P1;HPM_P2
2021/07/09 00:02:28;;;;;;;11.30;7.00;;;;;;;;;;4936127;29;20935;-77
2021/07/09 00:04:54;;;;;;;10.17;7.97;;;;;;;;;;4935722;29;20929;-78
2021/07/09 00:07:20;;;;;;;10.50;9.50;;;;;;;;;;4936069;29;20437;-79
2021/07/09 00:09:47;;;;;;;9.67;8.40;;;;;;;;;;4936005;29;20398;-80
2021/07/09 00:12:13;;;;;;;12.37;8.30;;;;;;;;;;4935824;29;20387;-78
2021/07/09 00:14:39;;;;;;;11.23;8.40;;;;;;;;;;5017261;28;20426;-79
2021/07/09 00:17:05;;;;;;;12.23;10.90;;;;;;;;;;4935964;29;20475;-77
2021/07/09 00:19:31;;;;;;;15.37;9.43;;;;;;;;;;4935856;29;20392;-77
2021/07/09 00:21:59;;;;;;;12.50;10.63;;;;;;;;;;4935598;29;20469;-80
2021/07/09 00:24:26;;;;;;;13.57;10.97;;;;;;;;;;4935302;29;20810;-78
2021/07/09 00:26:52;;;;;;;16.97;12.67;;;;;;;;;;4935718;29;20789;-77
2021/07/09 00:29:18;;;;;;;15.60;12.60;;;;;;;;;;4935563;29;20384;-78
2021/07/09 00:31:44;;;;;;;13.10;11.90;;;;;;;;;;4935553;29;20400;-79
2021/07/09 00:34:10;;;;;;;14.83;12.27;;;;;;;;;;4934903;29;20451;-79
2021/07/09 00:36:37;;;;;;;21.33;14.43;;;;;;;;;;4935571;29;20446;-77
2021/07/09 00:39:04;;;;;;;18.20;14.03;;;;;;;;;;4935722;29;20479;-77
2021/07/09 00:41:30;;;;;;;18.73;15.73;;;;;;;;;;4935693;29;20443;-78
2021/07/09 00:43:56;;;;;;;20.33;15.43;;;;;;;;;;4935122;29;20412;-78
2021/07/09 00:46:33;;;;;;;19.87;15.67;;;;;;;;;;4935241;29;20430;-76
2021/07/09 00:48:59;;;;;;;20.67;14.20;;;;;;;;;;4935540;29;20799;-77
2021/07/09 00:51:25;;;;;;;20.40;16.90;;;;;;;;;;4935399;29;20922;-78
2021/07/09 00:53:51;;;;;;;22.30;15.60;;;;;;;;;;4934931;29;20419;-77
2021/07/09 00:56:17;;;;;;;21.70;15.33;;;;;;;;;;4935143;29;20422;-78
2021/07/09 00:58:43;;;;;;;19.87;17.57;;;;;;;;;;4934185;29;20976;-77
2021/07/09 01:01:09;;;;;;;19.93;18.03;;;;;;;;;;4935322;29;20565;-78
2021/07/09 01:03:35;;;;;;;19.60;17.10;;;;;;;;;;4934796;29;20406;-78
2021/07/09 01:06:01;;;;;;;26.07;20.03;;;;;;;;;;4935185;29;20404;-78
2021/07/09 01:08:27;;;;;;;30.20;20.37;;;;;;;;;;4933893;29;20892;-77
2021/07/09 01:10:53;;;;;;;24.93;18.03;;;;;;;;;;4935124;29;20400;-79
2021/07/09 01:13:19;;;;;;;31.37;20.77;;;;;;;;;;4934665;29;20414;-78
2021/07/09 01:15:45;;;;;;;29.80;19.37;;;;;;;;;;4933611;29;20454;-78
2021/07/09 01:18:11;;;;;;;27.50;20.33;;;;;;;;;;4934955;29;20392;-76
2021/07/09 01:20:37;;;;;;;22.27;18.93;;;;;;;;;;4934811;29;21271;-77
2021/07/09 01:23:03;;;;;;;22.47;19.57;;;;;;;;;;4934577;29;20474;-77
2021/07/09 01:25:31;;;;;;;24.57;21.70;;;;;;;;;;4934799;29;20404;-78
2021/07/09 01:28:01;;;;;;;25.17;21.73;;;;;;;;;;4934787;29;20467;-79
2021/07/09 01:30:28;;;;;;;28.37;22.27;;;;;;;;;;4934542;29;20442;-78
2021/07/09 01:32:55;;;;;;;23.73;21.40;;;;;;;;;;4933157;29;20503;-78
2021/07/09 01:35:22;;;;;;;30.17;21.93;;;;;;;;;;4934531;29;20448;-78
2021/07/09 01:38:14;;;;;;;31.97;20.77;;;;;;;;;;4934632;29;20495;-79
2021/07/09 01:40:40;;;;;;;27.10;22.53;;;;;;;;;;4938237;28;20440;-77
2021/07/09 01:43:06;;;;;;;25.37;22.80;;;;;;;;;;4933699;29;20416;-76
2021/07/09 01:45:33;;;;;;;24.20;21.57;;;;;;;;;;4933240;29;20446;-76
2021/07/09 01:47:59;;;;;;;24.63;21.53;;;;;;;;;;4933629;29;20446;-78
2021/07/09 01:50:25;;;;;;;24.30;21.70;;;;;;;;;;4934555;29;20446;-79
2021/07/09 01:52:52;;;;;;;23.57;21.10;;;;;;;;;;4934325;29;20388;-78
2021/07/09 01:55:18;;;;;;;31.00;23.30;;;;;;;;;;4933196;29;20511;-77
2021/07/09 01:57:45;;;;;;;24.47;21.90;;;;;;;;;;4934265;29;20941;-78
2021/07/09 02:00:12;;;;;;;36.43;21.40;;;;;;;;;;4934383;29;20427;-77
2021/07/09 02:02:40;;;;;;;24.20;19.87;;;;;;;;;;4934300;29;20396;-77
2021/07/09 02:05:07;;;;;;;28.53;22.80;;;;;;;;;;4933898;29;20774;-76
2021/07/09 02:07:34;;;;;;;25.20;22.30;;;;;;;;;;4934274;29;20391;-78
2021/07/09 02:10:00;;;;;;;25.43;22.70;;;;;;;;;;4934090;29;20731;-78
2021/07/09 02:12:27;;;;;;;26.63;23.90;;;;;;;;;;4934329;29;20793;-78
2021/07/09 02:14:53;;;;;;;26.03;21.30;;;;;;;;;;4933629;29;20476;-78
2021/07/09 02:17:20;;;;;;;31.33;24.90;;;;;;;;;;4935528;29;20402;-78
2021/07/09 02:19:48;;;;;;;28.17;24.27;;;;;;;;;;4934173;29;20475;-77
2021/07/09 02:22:15;;;;;;;30.70;22.37;;;;;;;;;;4933918;29;20523;-79
2021/07/09 02:24:42;;;;;;;28.73;23.53;;;;;;;;;;4932393;29;20454;-79
2021/07/09 02:27:08;;;;;;;32.83;26.07;;;;;;;;;;4932526;29;20403;-77
2021/07/09 02:29:35;;;;;;;26.73;23.83;;;;;;;;;;4932626;29;20487;-77
2021/07/09 02:32:02;;;;;;;31.53;24.37;;;;;;;;;;4933813;29;20393;-79
2021/07/09 02:34:29;;;;;;;35.67;25.47;;;;;;;;;;4933572;29;20433;-79
2021/07/09 02:36:55;;;;;;;30.83;25.10;;;;;;;;;;4933465;29;20403;-77
2021/07/09 02:39:21;;;;;;;29.27;23.77;;;;;;;;;;4932445;29;20392;-77
2021/07/09 02:41:47;;;;;;;29.73;25.10;;;;;;;;;;4932530;29;20451;-78
2021/07/09 02:44:13;;;;;;;28.77;24.23;;;;;;;;;;4933475;29;20412;-78
2021/07/09 02:46:39;;;;;;;27.43;24.67;;;;;;;;;;4934031;29;20464;-78
2021/07/09 02:49:05;;;;;;;34.10;26.20;;;;;;;;;;4933617;29;20479;-78
2021/07/09 02:51:31;;;;;;;29.60;24.93;;;;;;;;;;4933585;29;20420;-78
2021/07/09 02:53:57;;;;;;;31.87;27.47;;;;;;;;;;4933010;29;20421;-79
2021/07/09 02:56:23;;;;;;;28.20;25.30;;;;;;;;;;4932859;29;20436;-76
2021/07/09 02:58:49;;;;;;;34.10;24.03;;;;;;;;;;4933474;29;20496;-77
2021/07/09 03:01:15;;;;;;;26.90;24.00;;;;;;;;;;4933346;29;20504;-78
2021/07/09 03:03:42;;;;;;;28.93;23.57;;;;;;;;;;4933260;29;20765;-78
2021/07/09 03:06:08;;;;;;;28.83;22.60;;;;;;;;;;4933710;29;20384;-78
2021/07/09 03:08:34;;;;;;;30.00;25.70;;;;;;;;;;4933491;29;20891;-77
2021/07/09 03:11:00;;;;;;;34.77;27.37;;;;;;;;;;4932234;29;20396;-79
2021/07/09 03:13:26;;;;;;;29.87;26.40;;;;;;;;;;4932872;29;20400;-76
2021/07/09 03:15:52;;;;;;;31.00;27.60;;;;;;;;;;4932018;29;20461;-78
2021/07/09 03:18:18;;;;;;;31.97;27.57;;;;;;;;;;4933299;29;20777;-80
2021/07/09 03:20:45;;;;;;;37.43;27.70;;;;;;;;;;4933219;29;20439;-79
2021/07/09 03:23:11;;;;;;;34.50;29.40;;;;;;;;;;4932778;29;20408;-79
2021/07/09 03:25:37;;;;;;;32.70;27.50;;;;;;;;;;4933009;29;20826;-77
2021/07/09 03:28:03;;;;;;;35.23;28.10;;;;;;;;;;4932066;29;20457;-78
2021/07/09 03:30:29;;;;;;;38.77;30.67;;;;;;;;;;4933273;29;20877;-78
2021/07/09 03:32:55;;;;;;;39.67;30.33;;;;;;;;;;4931633;29;20424;-77
2021/07/09 03:35:21;;;;;;;36.83;30.80;;;;;;;;;;4932987;29;20541;-79
2021/07/09 03:37:47;;;;;;;43.80;32.07;;;;;;;;;;4933472;29;20449;-78
2021/07/09 03:40:13;;;;;;;42.40;32.13;;;;;;;;;;4931793;29;20393;-79
2021/07/09 03:42:39;;;;;;;43.73;30.67;;;;;;;;;;4933162;29;20392;-78
2021/07/09 03:45:06;;;;;;;46.13;32.80;;;;;;;;;;4932698;29;20441;-81
2021/07/09 03:47:32;;;;;;;40.33;31.07;;;;;;;;;;4932872;29;20531;-78
2021/07/09 03:49:58;;;;;;;39.53;31.30;;;;;;;;;;4931512;29;20411;-80
2021/07/09 03:52:24;;;;;;;36.80;30.13;;;;;;;;;;4932951;29;20437;-78
2021/07/09 03:54:50;;;;;;;38.33;33.47;;;;;;;;;;4932479;29;20488;-78
2021/07/09 03:57:16;;;;;;;35.97;32.07;;;;;;;;;;4933105;29;20421;-77
2021/07/09 03:59:42;;;;;;;39.43;30.33;;;;;;;;;;4932904;29;20425;-79
2021/07/09 04:02:08;;;;;;;36.00;30.77;;;;;;;;;;4932820;29;20555;-78
2021/07/09 04:04:34;;;;;;;58.67;32.67;;;;;;;;;;4931210;29;20441;-78
2021/07/09 04:07:00;;;;;;;39.93;31.20;;;;;;;;;;4934797;29;20428;-76
2021/07/09 04:09:26;;;;;;;43.17;32.73;;;;;;;;;;4936086;29;20396;-77
2021/07/09 04:11:52;;;;;;;45.37;34.63;;;;;;;;;;4935851;29;20449;-78
2021/07/09 04:14:18;;;;;;;39.57;34.30;;;;;;;;;;4934370;29;20441;-77
2021/07/09 04:16:44;;;;;;;42.60;34.97;;;;;;;;;;4934710;29;20427;-78
2021/07/09 04:19:10;;;;;;;44.00;33.23;;;;;;;;;;4934936;29;20468;-77
2021/07/09 04:21:36;;;;;;;46.77;35.67;;;;;;;;;;4934607;29;20988;-79
2021/07/09 04:24:02;;;;;;;42.83;33.77;;;;;;;;;;4935484;29;20408;-79
2021/07/09 04:26:28;;;;;;;49.13;34.37;;;;;;;;;;4936307;29;20396;-79
2021/07/09 04:28:54;;;;;;;50.30;36.70;;;;;;;;;;4936057;29;20422;-77
2021/07/09 04:31:20;;;;;;;47.47;37.23;;;;;;;;;;4935681;29;20430;-78
2021/07/09 04:33:50;;;;;;;51.70;37.10;;;;;;;;;;4935135;29;20434;-79
2021/07/09 04:36:16;;;;;;;49.30;36.70;;;;;;;;;;4935484;29;20983;-77
2021/07/09 04:38:42;;;;;;;45.77;35.00;;;;;;;;;;4934618;29;20449;-77
2021/07/09 04:41:07;;;;;;;47.30;36.73;;;;;;;;;;4935352;29;20992;-78
2021/07/09 04:43:33;;;;;;;45.37;36.03;;;;;;;;;;4935381;29;20487;-80
2021/07/09 04:45:59;;;;;;;45.30;36.93;;;;;;;;;;4934317;29;20441;-78
2021/07/09 04:48:25;;;;;;;48.77;37.97;;;;;;;;;;4934327;29;20450;-78
2021/07/09 04:50:51;;;;;;;49.07;37.37;;;;;;;;;;4934129;29;20468;-78
2021/07/09 04:53:17;;;;;;;49.03;36.33;;;;;;;;;;4935146;29;20491;-78
2021/07/09 04:55:43;;;;;;;46.43;35.43;;;;;;;;;;4935163;29;20448;-77
2021/07/09 04:58:09;;;;;;;40.83;35.50;;;;;;;;;;4934056;29;20598;-78
2021/07/09 05:00:35;;;;;;;47.17;36.10;;;;;;;;;;4935241;29;20440;-79
2021/07/09 05:03:01;;;;;;;41.50;35.67;;;;;;;;;;4934866;29;20412;-78
2021/07/09 05:05:27;;;;;;;43.43;35.10;;;;;;;;;;4935231;29;20914;-78
2021/07/09 05:07:53;;;;;;;48.20;36.90;;;;;;;;;;4935362;29;20429;-77
2021/07/09 05:10:19;;;;;;;52.97;39.53;;;;;;;;;;4934029;29;20825;-78
2021/07/09 05:12:46;;;;;;;46.13;38.73;;;;;;;;;;4933705;29;20474;-78
2021/07/09 05:15:12;;;;;;;53.63;39.20;;;;;;;;;;4935018;29;20424;-79
2021/07/09 05:17:38;;;;;;;51.50;40.27;;;;;;;;;;4934387;29;20784;-78
2021/07/09 05:20:04;;;;;;;55.57;38.03;;;;;;;;;;4935001;29;20381;-79
2021/07/09 05:22:30;;;;;;;50.37;40.80;;;;;;;;;;4934730;29;20444;-77
2021/07/09 05:24:56;;;;;;;45.10;37.93;;;;;;;;;;4934632;29;20408;-80
2021/07/09 05:27:28;;;;;;;49.50;39.07;;;;;;;;;;4934791;29;20444;-77
2021/07/09 05:29:54;;;;;;;44.20;36.13;;;;;;;;;;4934993;29;20413;-78
2021/07/09 05:32:24;;;;;;;44.40;36.37;;;;;;;;;;4934983;29;20399;-76
2021/07/09 05:34:51;;;;;;;44.87;36.07;;;;;;;;;;4936443;29;20420;-79
2021/07/09 05:37:17;;;;;;;51.33;36.57;;;;;;;;;;4933393;29;20493;-79
2021/07/09 05:39:43;;;;;;;39.60;34.07;;;;;;;;;;4918028;29;20893;-78
2021/07/09 05:42:09;;;;;;;39.80;33.50;;;;;;;;;;4915572;29;20498;-78
2021/07/09 05:44:35;;;;;;;35.20;31.37;;;;;;;;;;4915054;29;20409;-77
2021/07/09 05:47:02;;;;;;;44.87;36.00;;;;;;;;;;4915618;29;20445;-79
2021/07/09 05:49:28;;;;;;;45.70;34.47;;;;;;;;;;4915573;29;20415;-78
2021/07/09 05:51:54;;;;;;;50.53;37.70;;;;;;;;;;4915486;29;20441;-77
2021/07/09 05:54:20;;;;;;;52.20;40.67;;;;;;;;;;4915102;29;20442;-78
2021/07/09 05:56:46;;;;;;;49.23;38.17;;;;;;;;;;4915379;29;20859;-77
2021/07/09 05:59:12;;;;;;;54.67;37.60;;;;;;;;;;4915576;29;20838;-77
2021/07/09 06:01:38;;;;;;;48.43;38.13;;;;;;;;;;4921691;29;20449;-77
2021/07/09 06:04:04;;;;;;;53.07;36.30;;;;;;;;;;4932707;29;20496;-76
2021/07/09 06:06:30;;;;;;;45.93;36.67;;;;;;;;;;4934505;29;20421;-76
2021/07/09 06:08:57;;;;;;;49.87;36.73;;;;;;;;;;4934261;29;20445;-77
2021/07/09 06:11:25;;;;;;;49.10;36.90;;;;;;;;;;4934329;29;20463;-77
2021/07/09 06:13:51;;;;;;;48.27;36.17;;;;;;;;;;4933859;29;20410;-76
2021/07/09 06:16:17;;;;;;;44.80;37.43;;;;;;;;;;4934126;29;20437;-77
2021/07/09 06:18:43;;;;;;;44.50;37.40;;;;;;;;;;4934036;29;20418;-78
2021/07/09 06:21:10;;;;;;;42.70;36.67;;;;;;;;;;4934068;29;20480;-76
2021/07/09 06:23:36;;;;;;;48.90;37.57;;;;;;;;;;4933888;29;20413;-76
2021/07/09 06:26:02;;;;;;;47.27;37.80;;;;;;;;;;4933910;29;20444;-77
2021/07/09 06:28:28;;;;;;;52.70;37.00;;;;;;;;;;4934020;29;20452;-79
2021/07/09 06:30:54;;;;;;;57.20;39.30;;;;;;;;;;4933750;29;20768;-76
2021/07/09 06:33:20;;;;;;;52.70;40.77;;;;;;;;;;4933588;29;20433;-76
2021/07/09 06:35:46;;;;;;;64.27;41.10;;;;;;;;;;4932888;29;20792;-76
2021/07/09 06:38:12;;;;;;;62.60;39.10;;;;;;;;;;4919707;29;20422;-77
2021/07/09 06:40:38;;;;;;;46.47;37.03;;;;;;;;;;4918039;29;20472;-75
2021/07/09 06:43:04;;;;;;;48.30;37.10;;;;;;;;;;4933163;29;20417;-75
2021/07/09 06:45:30;;;;;;;54.37;37.63;;;;;;;;;;4933754;29;20437;-75
2021/07/09 06:47:56;;;;;;;50.73;38.40;;;;;;;;;;4933664;29;20416;-75
2021/07/09 06:50:22;;;;;;;49.27;34.97;;;;;;;;;;4933809;29;20406;-74
2021/07/09 06:52:48;;;;;;;52.60;34.60;;;16.30;99.90;;;;;;4932310;29;20418;-75
2021/07/09 06:55:14;;;;;;;51.80;38.97;;;16.30;99.90;;;;;;4933423;29;20558;-75
2021/07/09 06:57:46;;;;;;;47.97;34.90;;;16.20;99.90;;;;;;4933651;29;20193;-74
2021/07/09 07:00:13;;;;;;;44.40;34.00;;;16.10;99.90;;;;;;4933499;29;20413;-76
2021/07/09 07:02:39;;;;;;;53.07;36.57;;;16.20;99.90;;;;;;4933359;28;20411;-80
2021/07/09 07:05:05;;;;;;;51.90;38.07;;;16.30;99.90;;;;;;4932876;29;20925;-80
2021/07/09 07:07:31;;;;;;;50.70;38.67;;;16.30;99.90;;;;;;4933376;29;20194;-79
2021/07/09 07:09:57;;;;;;;61.03;38.93;;;16.40;99.90;;;;;;4933372;29;20430;-79
2021/07/09 07:12:22;;;;;;;54.27;39.00;;;16.40;99.90;;;;;;4933524;29;20275;-78
2021/07/09 07:14:48;;;;;;;48.63;37.13;;;16.40;99.90;;;;;;4932890;29;20220;-78
2021/07/09 07:17:16;;;;;;;50.70;36.97;;;16.40;99.90;;;;;;4933403;29;20186;-77
2021/07/09 07:19:41;;;;;;;55.80;36.60;;;16.30;99.90;;;;;;4932312;29;20174;-78
2021/07/09 07:22:07;;;;;;;53.20;37.40;;;;;;;;;;4933313;29;20476;-76
2021/07/09 07:24:33;;;;;;;47.83;36.80;;;;;;;;;;4932939;29;20204;-79
2021/07/09 07:26:59;;;;;;;56.50;39.47;;;;;;;;;;4933767;29;20413;-77
2021/07/09 07:29:25;;;;;;;60.40;39.00;;;;;;;;;;4932907;29;20445;-77
2021/07/09 07:31:52;;;;;;;52.90;37.63;;;;;;;;;;4933297;29;20417;-80
2021/07/09 07:34:18;;;;;;;54.00;36.00;;;;;;;;;;4931354;29;20423;-79
2021/07/09 07:36:44;;;;;;;49.73;37.27;;;;;;;;;;4931955;29;20790;-81
2021/07/09 07:39:10;;;;;;;49.43;34.90;;;;;;;;;;4932927;29;20504;-82
2021/07/09 07:41:37;;;;;;;50.47;33.70;;;;;;;;;;4934442;29;20439;-82
2021/07/09 07:44:03;;;;;;;56.37;33.80;;;;;;;;;;4936038;29;20408;-84
2021/07/09 07:46:32;;;;;;;57.90;34.57;;;;;;;;;;4936961;29;20814;-85
2021/07/09 07:49:04;;;;;;;46.70;32.00;;;;;;;;;;4935996;29;20878;-87
2021/07/09 07:51:30;;;;;;;57.67;33.70;;;;;;;;;;4937063;29;20488;-86
2021/07/09 07:53:57;;;;;;;56.33;34.40;;;;;;;;;;4919580;29;20425;-85
2021/07/09 07:56:24;;;;;;;63.57;37.80;;;;;;;;;;4936618;29;20424;-83
2021/07/09 07:58:52;;;;;;;65.33;37.00;;;;;;;;;;4935038;29;20397;-83
2021/07/09 08:01:19;;;;;;;53.10;34.47;;;;;;;;;;4936226;29;21087;-82
2021/07/09 08:03:45;;;;;;;63.10;36.37;;;;;;;;;;4935902;29;20412;-81
2021/07/09 08:06:11;;;;;;;52.27;34.03;;;;;;;;;;4934978;29;20461;-81
2021/07/09 08:08:38;;;;;;;57.17;34.17;;;;;;;;;;4936058;29;20479;-81
2021/07/09 08:11:04;;;;;;;61.67;33.97;;;;;;;;;;4934992;29;20443;-81
2021/07/09 08:13:30;;;;;;;65.57;34.37;;;;;;;;;;4934572;29;20421;-82
2021/07/09 08:16:01;;;;;;;56.43;30.23;;;;;;;;;;4934499;29;20467;-83
2021/07/09 08:18:27;;;;;;;51.60;29.50;;;;;;;;;;4935570;29;20939;-83
2021/07/09 08:20:53;;;;;;;42.77;24.77;;;;;;;;;;4936694;29;20471;-84
2021/07/09 08:23:19;;;;;;;52.83;26.40;;;;;;;;;;4936144;29;20405;-84
2021/07/09 08:25:45;;;;;;;53.93;26.47;;;;;;;;;;4936493;29;20433;-83
2021/07/09 08:28:14;;;;;;;59.23;27.30;;;;;;;;;;4935498;29;20410;-85
2021/07/09 08:30:41;;;;;;;48.57;24.47;;;;;;;;;;4934930;29;20940;-84
2021/07/09 08:33:07;;;;;;;49.10;26.73;;;;;;;;;;4934777;29;20421;-81
2021/07/09 08:35:33;;;;;;;58.40;27.23;;;;;;;;;;4935939;29;20483;-84
2021/07/09 08:37:59;;;;;;;53.40;28.50;;;;;;;;;;4934489;29;20798;-82
2021/07/09 08:40:25;;;;;;;57.13;28.83;;;;;;;;;;4935791;29;20424;-84
2021/07/09 08:42:51;;;;;;;54.07;26.57;;;;;;;;;;4935426;29;20483;-84
2021/07/09 08:45:18;;;;;;;64.20;29.20;;;;;;;;;;4939030;29;20452;-84
2021/07/09 08:47:43;;;;;;;57.27;28.93;;;;;;;;;;4939983;29;20441;-84
2021/07/09 08:50:11;;;;;;;61.73;29.90;;;;;;;;;;4937747;29;20899;-86
2021/07/09 08:52:37;;;;;;;57.30;31.20;;;;;;;;;;4935593;29;20414;-84
2021/07/09 08:55:05;;;;;;;50.00;29.07;;;;;;;;;;4936874;29;20437;-85
2021/07/09 08:57:32;;;;;;;60.90;29.43;;;;;;;;;;4939854;29;20421;-83
2021/07/09 08:59:58;;;;;;;52.20;27.80;;;;;;;;;;4934921;29;20428;-84
2021/07/09 09:02:25;;;;;;;58.00;29.80;;;;;;;;;;4934434;29;20555;-84
2021/07/09 09:04:52;;;;;;;57.00;29.13;;;;;;;;;;4935103;29;20495;-82
2021/07/09 09:07:17;;;;;;;55.97;28.57;;;16.30;99.90;;;;;;4935490;29;20402;-83
2021/07/09 09:09:43;;;;;;;51.80;28.60;;;16.50;99.90;;;;;;4933913;29;20441;-84
2021/07/09 09:12:15;;;;;;;48.80;26.63;;;16.50;99.90;;;;;;4934992;29;20190;-82
2021/07/09 09:14:42;;;;;;;44.17;27.30;;;16.40;99.90;;;;;;4934637;29;20268;-83
2021/07/09 09:17:33;;;;;;;44.83;27.43;;;16.50;99.90;;;;;;4935329;29;20391;-83
2021/07/09 09:20:13;;;;;;;44.47;26.93;;;16.60;99.90;;;;;;4933846;29;20425;-83
2021/07/09 09:22:48;;;;;;;40.70;25.20;;;16.70;99.90;;;;;;4934980;29;20467;-83
2021/07/09 09:25:15;;;;;;;41.40;24.57;;;16.70;99.90;;;;;;4933755;29;20459;-82
2021/07/09 09:27:41;;;;;;;41.97;23.67;;;16.80;99.90;;;;;;4934595;29;20906;-81
2021/07/09 09:30:14;;;;;;;39.33;24.77;;;16.90;99.90;;;;;;4934855;29;20434;-82
2021/07/09 09:32:50;;;;;;;32.67;23.20;;;17.10;99.90;;;;;;4933545;28;20228;-82
2021/07/09 09:35:22;;;;;;;34.40;20.70;;;17.10;99.90;;;;;;4933595;29;20444;-79
2021/07/09 09:37:59;;;;;;;34.87;21.33;;;17.30;99.90;;;;;;4933301;29;20453;-82
2021/07/09 09:40:27;;;;;;;29.77;19.80;;;17.40;99.90;;;;;;4934535;29;20504;-82
2021/07/09 09:42:53;;;;;;;28.87;19.80;;;17.50;99.90;;;;;;4934367;29;20417;-80
2021/07/09 09:45:26;;;;;;;23.23;16.37;;;17.60;99.90;;;;;;4934554;29;20408;-81
2021/07/09 09:47:52;;;;;;;24.50;15.17;;;17.70;99.90;;;;;;4933275;29;20783;-81
2021/07/09 09:50:21;;;;;;;25.57;16.30;;;17.90;99.90;;;;;;4934377;29;20399;-81
2021/07/09 09:52:52;;;;;;;16.90;13.50;;;18.20;99.90;;;;;;4934147;29;20456;-78
2021/07/09 09:55:18;;;;;;;17.50;13.40;;;18.40;99.90;;;;;;4926058;29;20512;-82
2021/07/09 09:57:44;;;;;;;18.50;12.17;;;18.50;99.90;;;;;;4895179;29;20398;-79
2021/07/09 10:00:22;;;;;;;18.47;10.00;;;18.90;99.90;;;;;;4895309;29;20270;-82
2021/07/09 10:02:48;;;;;;;15.87;10.93;;;18.90;99.90;;;;;;4894150;29;20845;-82
2021/07/09 10:05:14;;;;;;;17.90;10.77;;;19.00;99.90;;;;;;4893545;29;20987;-79
2021/07/09 10:07:40;;;;;;;13.90;10.63;;;19.00;99.90;;;;;;4909329;29;20739;-81
2021/07/09 10:10:08;;;;;;;14.10;10.80;;;19.00;99.90;;;;;;4893556;29;20434;-80
2021/07/09 10:12:38;;;;;;;14.03;10.13;;;19.40;99.90;;;;;;4893477;29;20191;-79
2021/07/09 10:15:05;;;;;;;17.27;11.60;;;19.80;99.90;;;;;;4894470;29;20438;-82
2021/07/09 10:17:30;;;;;;;12.03;9.70;;;19.60;99.90;;;;;;4893884;29;20762;-79
2021/07/09 10:19:59;;;;;;;17.17;10.40;;;20.00;99.90;;;;;;4895007;29;20438;-79
2021/07/09 10:22:25;;;;;;;13.20;10.27;;;20.20;99.90;;;;;;4892965;29;20222;-80
2021/07/09 10:24:54;;;;;;;16.57;10.63;;;19.90;99.90;;;;;;4894099;29;20458;-84
2021/07/09 10:27:22;;;;;;;17.43;9.80;;;20.50;99.90;;;;;;4894274;29;20186;-83
2021/07/09 10:29:49;;;;;;;14.73;10.00;;;20.90;99.90;;;;;;4894893;29;20431;-82
2021/07/09 10:32:34;;;;;;;16.80;9.97;;;20.90;99.90;;;;;;4892503;29;20991;-82
2021/07/09 10:35:00;;;;;;;15.97;10.50;;;20.90;99.90;;;;;;4893212;29;20440;-83
2021/07/09 10:37:29;;;;;;;11.40;10.20;;;21.30;99.90;;;;;;4894415;29;20431;-83
2021/07/09 10:40:06;;;;;;;12.03;9.07;;;21.40;99.90;;;;;;4894579;29;20510;-82
2021/07/09 10:42:41;;;;;;;14.23;9.93;;;21.30;99.90;;;;;;4894365;29;20486;-81
2021/07/09 10:45:18;;;;;;;11.20;9.30;;;21.70;99.90;;;;;;4894174;29;20529;-82
2021/07/09 10:47:55;;;;;;;9.10;8.07;;;21.60;99.90;;;;;;4894318;29;20430;-80
2021/07/09 10:50:20;;;;;;;11.00;9.20;;;21.90;99.90;;;;;;4894329;29;20431;-80
2021/07/09 10:52:46;;;;;;;14.17;7.47;;;21.40;99.90;;;;;;4894279;29;20445;-80
2021/07/09 10:55:27;;;;;;;11.57;9.00;;;21.30;99.90;;;;;;4898576;29;20652;-80
2021/07/09 10:58:08;;;;;;;14.00;9.63;;;22.00;99.90;;;;;;4898721;29;20249;-81
2021/07/09 11:00:56;;;;;;;13.70;10.80;;;21.90;99.90;;;;;;4892749;29;20439;-81
2021/07/09 11:06:22;;;;;;;11.57;9.07;;;22.40;99.90;;;;;;5170101;23;20505;-80
2021/07/09 11:09:07;;;;;;;15.67;9.83;;;22.20;99.90;;;;;;4991679;28;20423;-83
2021/07/09 11:11:51;;;;;;;10.60;9.00;;;22.20;99.90;;;;;;4992319;28;20433;-81
2021/07/09 11:14:20;;;;;;;13.30;9.90;;;22.30;99.90;;;;;;4991309;28;20505;-80
2021/07/09 11:16:48;;;;;;;10.27;8.57;;;22.10;99.90;;;;;;4990929;28;20439;-80
2021/07/09 11:19:19;;;;;;;11.60;9.20;;;22.60;99.90;;;;;;4992398;28;20513;-79
2021/07/09 11:21:51;;;;;;;10.97;7.43;;;22.70;99.90;;;;;;4992236;28;20556;-81
2021/07/09 11:24:22;;;;;;;10.17;7.00;;;22.50;99.90;;;;;;4991615;28;20442;-81
2021/07/09 11:26:56;;;;;;;9.27;7.53;;;22.80;99.90;;;;;;4990843;28;20436;-81
2021/07/09 11:29:35;;;;;;;9.73;7.20;;;22.80;99.90;;;;;;4990932;28;20422;-80
2021/07/09 11:32:06;;;;;;;6.93;6.17;;;23.10;99.90;;;;;;4990613;28;20972;-81
2021/07/09 11:34:52;;;;;;;10.60;6.87;;;23.00;99.90;;;;;;4991579;28;20446;-81
2021/07/09 11:37:20;;;;;;;7.33;6.53;;;22.60;99.90;;;;;;4992443;28;20423;-80
2021/07/09 11:39:51;;;;;;;7.27;6.07;;;22.10;99.90;;;;;;4991318;28;20438;-80
2021/07/09 11:42:22;;;;;;;10.73;6.17;;;22.20;99.90;;;;;;4992358;28;20494;-80
2021/07/09 11:44:55;;;;;;;8.90;6.00;;;22.30;99.90;;;;;;4991621;28;20442;-80
2021/07/09 11:47:24;;;;;;;10.00;6.30;;;22.10;99.90;;;;;;4990432;28;20434;-80
2021/07/09 11:49:52;;;;;;;8.90;5.80;;;21.90;99.90;;;;;;4991858;28;20804;-80
2021/07/09 11:52:24;;;;;;;10.80;5.53;;;21.50;99.90;;;;;;4992301;28;20452;-81
2021/07/09 11:54:51;;;;;;;7.10;6.40;;;21.80;99.90;;;;;;4989672;28;20541;-80
2021/07/09 11:57:25;;;;;;;7.10;5.33;;;22.20;99.90;;;;;;4989388;28;20442;-81
2021/07/09 11:59:54;;;;;;;8.10;6.00;;;22.20;99.90;;;;;;4991740;28;20459;-80
2021/07/09 12:02:30;;;;;;;10.10;5.70;;;22.30;99.90;;;;;;4991455;28;20959;-81
2021/07/09 12:05:00;;;;;;;6.83;5.20;;;22.30;99.90;;;;;;4991909;28;20547;-81
2021/07/09 12:07:28;;;;;;;7.20;5.50;;;22.30;99.90;;;;;;4991791;28;20418;-80
2021/07/09 12:10:00;;;;;;;7.73;4.80;;;21.90;99.90;;;;;;4991699;28;20419;-81
2021/07/09 12:12:30;;;;;;;9.60;4.90;;;21.80;99.90;;;;;;4990535;28;20449;-81
2021/07/09 12:14:57;;;;;;;5.60;5.00;;;22.20;99.90;;;;;;4992002;28;20422;-82
2021/07/09 12:17:24;;;;;;;7.10;4.43;;;22.30;99.90;;;;;;4993495;28;20806;-81
2021/07/09 12:20:03;;;;;;;6.40;4.60;;;22.20;99.90;;;;;;4992357;28;20431;-79
2021/07/09 12:22:39;;;;;;;9.13;5.30;;;22.30;99.90;;;;;;4991558;28;20454;-84
2021/07/09 12:25:17;;;;;;;5.37;4.87;;;21.70;99.90;;;;;;4990575;28;20441;-79
2021/07/09 12:27:43;;;;;;;6.60;4.37;;;21.80;99.90;;;;;;4992256;28;20438;-80
2021/07/09 12:30:12;;;;;;;5.83;4.80;;;21.90;99.90;;;;;;4993592;28;20458;-80
2021/07/09 12:32:43;;;;;;;5.47;4.63;;;22.00;99.90;;;;;;4995033;28;20405;-80
2021/07/09 12:35:10;;;;;;;4.80;4.10;;;22.30;99.90;;;;;;4994965;28;20414;-80
2021/07/09 12:37:36;;;;;;;6.40;4.47;;;22.50;99.90;;;;;;4993087;28;20528;-81
2021/07/09 12:40:12;;;;;;;7.03;4.10;;;22.40;99.90;;;;;;4995186;28;20899;-79
2021/07/09 12:42:38;;;;;;;4.53;4.07;;;22.40;99.90;;;;;;4995134;28;20454;-81
2021/07/09 12:45:05;;;;;;;6.90;4.80;;;22.60;99.90;;;;;;4993014;28;20433;-79
2021/07/09 12:47:32;;;;;;;7.00;4.60;;;22.40;99.90;;;;;;4994779;28;20422;-79
2021/07/09 12:50:38;;;;;;;7.90;5.13;;;22.90;99.90;;;;;;4995017;28;20925;-80
2021/07/09 12:53:35;;;;;;;6.40;5.20;;;23.00;99.90;;;;;;4991855;28;20428;-80
2021/07/09 12:56:00;;;;;;;7.80;5.10;;;23.30;99.90;;;;;;4991930;28;20447;-81
2021/07/09 12:58:29;;;;;;;6.50;5.40;;;23.80;99.90;;;;;;4985310;28;20465;-79
2021/07/09 13:01:05;;;;;;;4.80;4.40;;;24.10;99.90;;;;;;4992939;28;20587;-79
2021/07/09 13:03:32;;;;;;;6.20;5.03;;;24.70;99.90;;;;;;4993033;28;20997;-82
2021/07/09 13:06:09;;;;;;;5.20;4.40;;;24.30;99.90;;;;;;4994427;28;20458;-80
2021/07/09 13:08:37;;;;;;;6.80;5.80;;;24.90;99.90;;;;;;4992190;28;20564;-80
2021/07/09 13:11:20;;;;;;;4.90;4.50;;;24.80;99.90;;;;;;4993564;28;20424;-80
2021/07/09 13:13:53;;;;;;;5.17;4.37;;;25.10;99.90;;;;;;4994015;28;20418;-81
2021/07/09 13:16:22;;;;;;;5.73;4.90;;;25.10;99.90;;;;;;4993982;28;20562;-80
2021/07/09 13:19:06;;;;;;;7.13;5.77;;;24.50;99.90;;;;;;4994577;28;20422;-80
2021/07/09 13:21:51;;;;;;;11.30;4.97;;;24.80;99.90;;;;;;4994108;28;20465;-81
2021/07/09 13:24:17;;;;;;;7.70;5.80;;;24.90;99.90;;;;;;4994427;28;20445;-81
2021/07/09 13:26:46;;;;;;;6.80;5.90;;;24.70;99.90;;;;;;4993031;28;20415;-81
2021/07/09 13:29:21;;;;;;;9.20;6.47;;;24.50;99.90;;;;;;4993855;28;20670;-80
2021/07/09 13:31:58;;;;;;;11.33;6.57;;;24.00;99.90;;;;;;4993933;28;20428;-80
2021/07/09 13:34:26;;;;;;;10.33;6.67;;;24.00;99.90;;;;;;4993946;28;20863;-81
2021/07/09 13:36:51;;;;;;;8.70;5.80;;;24.20;99.90;;;;;;4993361;28;20426;-80
2021/07/09 13:39:18;;;;;;;9.30;6.30;;;24.20;99.90;;;;;;4991939;28;20825;-80
2021/07/09 13:41:44;;;;;;;7.07;6.37;;;24.00;99.90;;;;;;4992442;28;20463;-80
2021/07/09 13:44:11;;;;;;;8.50;7.27;;;24.10;99.90;;;;;;4992994;28;20977;-79
2021/07/09 13:46:37;;;;;;;8.83;6.97;;;23.70;99.90;;;;;;4993886;28;20419;-80